createdAt,value
2022-10-29T00:02:25.715Z,101199.22
2022-10-29T00:04:57.933Z,101203.44
2022-10-29T00:07:27.544Z,101208.28
2022-10-29T00:09:57.121Z,101207.44
2022-10-29T00:12:26.787Z,101210.19
2022-10-29T00:14:56.332Z,101206.56
2022-10-29T00:17:25.925Z,101203.31
2022-10-29T00:19:58.131Z,101198.38
2022-10-29T00:22:27.676Z,101196.84
2022-10-29T00:24:57.276Z,101205.81
2022-10-29T00:27:26.895Z,101204.00
2022-10-29T00:29:56.977Z,101212.38
2022-10-29T00:32:26.519Z,101212.38
2022-10-29T00:34:58.655Z,101208.94
2022-10-29T00:37:28.182Z,101215.13
2022-10-29T00:39:57.689Z,101215.22
2022-10-29T00:42:27.212Z,101224.25
2022-10-29T00:44:56.789Z,101220.91
2022-10-29T00:47:27.718Z,101210.34
2022-10-29T00:50:02.844Z,101212.34
2022-10-29T00:52:33.980Z,101205.28
2022-10-29T00:55:06.188Z,101203.88
2022-10-29T00:57:39.721Z,101208.31
2022-10-29T01:02:57.516Z,101203.28
2022-10-29T01:16:28.063Z,101195.75
2022-10-29T01:19:04.523Z,101186.06
2022-10-29T01:21:45.406Z,101184.34
2022-10-29T01:24:35.052Z,101187.22
2022-10-29T01:27:43.105Z,101183.91
2022-10-29T01:30:17.094Z,101176.94
2022-10-29T01:32:55.840Z,101178.84
2022-10-29T01:35:29.182Z,101171.06
2022-10-29T01:38:08.390Z,101180.91
2022-10-29T01:40:41.307Z,101184.81
2022-10-29T01:43:16.048Z,101182.41
2022-10-29T01:45:48.263Z,101171.84
2022-10-29T01:48:28.979Z,101168.25
2022-10-29T01:51:05.542Z,101163.13
2022-10-29T01:53:37.973Z,101156.63
2022-10-29T01:56:07.967Z,101156.13
2022-10-29T01:58:42.019Z,101156.34
2022-10-29T02:01:22.087Z,101157.53
2022-10-29T02:03:59.918Z,101159.19
2022-10-29T02:06:38.244Z,101165.28
2022-10-29T02:09:12.565Z,101164.88
2022-10-29T02:11:47.638Z,101159.44
2022-10-29T02:14:20.629Z,101152.50
2022-10-29T02:16:50.703Z,101147.19
2022-10-29T02:19:22.923Z,101152.34
2022-10-29T02:21:53.477Z,101142.94
2022-10-29T02:24:24.700Z,101132.44
2022-10-29T02:26:54.472Z,101136.06
2022-10-29T02:29:24.236Z,101132.66
2022-10-29T02:31:53.784Z,101136.59
2022-10-29T02:34:25.923Z,101127.84
2022-10-29T02:36:55.469Z,101119.19
2022-10-29T02:39:25.087Z,101123.63
2022-10-29T02:41:54.619Z,101123.44
2022-10-29T02:44:24.157Z,101126.50
2022-10-29T02:46:53.658Z,101123.13
2022-10-29T02:49:25.757Z,101118.00
2022-10-29T02:51:55.297Z,101125.38
2022-10-29T02:54:24.821Z,101120.13
2022-10-29T02:56:54.441Z,101115.97
2022-10-29T02:59:24.012Z,101109.84
2022-10-29T03:01:53.651Z,101111.03
2022-10-29T03:04:26.114Z,101103.13
2022-10-29T03:06:55.713Z,101108.63
2022-10-29T03:09:25.504Z,101103.56
2022-10-29T03:11:55.061Z,101098.59
2022-10-29T03:14:24.589Z,101113.00
2022-10-29T03:16:54.239Z,101118.31
2022-10-29T03:19:30.252Z,101119.25
2022-10-29T03:21:59.823Z,101125.63
2022-10-29T03:24:29.363Z,101121.16
2022-10-29T03:26:58.891Z,101119.44
2022-10-29T03:29:28.437Z,101111.69
2022-10-29T03:31:57.962Z,101104.50
2022-10-29T03:34:30.117Z,101106.06
2022-10-29T03:36:59.665Z,101111.03
2022-10-29T03:39:29.193Z,101106.22
2022-10-29T03:41:58.737Z,101103.47
2022-10-29T03:44:28.245Z,101100.03
2022-10-29T03:46:57.905Z,101100.91
2022-10-29T03:49:29.998Z,101103.63
2022-10-29T03:51:59.542Z,101110.84
2022-10-29T03:54:29.062Z,101103.81
2022-10-29T03:56:58.638Z,101109.75
2022-10-29T03:59:28.191Z,101102.09
2022-10-29T04:01:57.853Z,101101.25
2022-10-29T04:04:30.235Z,101100.38
2022-10-29T04:06:59.821Z,101097.97
2022-10-29T04:09:29.399Z,101105.06
2022-10-29T04:11:58.980Z,101094.53
2022-10-29T04:14:28.524Z,101079.47
2022-10-29T04:16:58.152Z,101070.72
2022-10-29T04:19:30.269Z,101063.00
2022-10-29T04:27:01.703Z,101078.56
2022-10-29T04:28:41.414Z,101077.00
2022-10-29T04:30:28.521Z,101070.38
2022-10-29T04:33:01.509Z,101074.00
2022-10-29T04:35:33.649Z,101080.41
2022-10-29T04:38:03.178Z,101083.84
2022-10-29T04:40:32.685Z,101088.63
2022-10-29T04:43:02.204Z,101087.75
2022-10-29T04:45:31.846Z,101084.25
2022-10-29T04:48:02.517Z,101074.03
2022-10-29T04:50:35.239Z,101065.13
2022-10-29T04:53:05.881Z,101059.72
2022-10-29T04:55:38.939Z,101056.31
2022-10-29T04:58:08.712Z,101050.91
2022-10-29T05:00:38.286Z,101051.00
2022-10-29T05:03:07.862Z,101038.66
2022-10-29T05:05:41.944Z,101046.00
2022-10-29T05:08:15.327Z,101040.88
2022-10-29T05:10:44.922Z,101021.25
2022-10-29T05:13:15.236Z,101016.66
2022-10-29T05:15:49.097Z,101013.06
2022-10-29T05:18:21.608Z,101008.19
2022-10-29T05:20:55.902Z,101017.66
2022-10-29T05:23:25.636Z,101022.06
2022-10-29T05:25:55.187Z,101020.09
2022-10-29T05:28:25.955Z,101026.56
2022-10-29T05:30:56.063Z,101032.72
2022-10-29T05:33:26.875Z,101037.09
2022-10-29T05:35:59.051Z,101050.22
2022-10-29T05:38:28.576Z,101056.72
2022-10-29T05:41:00.594Z,101043.72
2022-10-29T05:43:30.179Z,101033.97
2022-10-29T05:45:59.708Z,101029.59
2022-10-29T05:48:29.241Z,101034.91
2022-10-29T05:51:02.482Z,101032.13
2022-10-29T05:53:32.038Z,101022.28
2022-10-29T05:56:02.148Z,101024.84
2022-10-29T05:58:31.952Z,101025.81
2022-10-29T06:01:01.524Z,101023.16
2022-10-29T06:03:31.246Z,101021.44
2022-10-29T06:06:03.626Z,101025.63
2022-10-29T06:08:33.288Z,101028.28
2022-10-29T06:11:04.519Z,101022.19
2022-10-29T06:13:34.163Z,101015.00
2022-10-29T06:16:03.971Z,101007.22
2022-10-29T06:18:33.518Z,101018.28
2022-10-29T06:21:05.750Z,101007.91
2022-10-29T06:23:35.266Z,101004.38
2022-10-29T06:26:04.809Z,101000.03
2022-10-29T06:28:35.075Z,101000.72
2022-10-29T06:31:04.801Z,101008.78
2022-10-29T06:33:34.381Z,101019.41
2022-10-29T06:36:07.297Z,100999.03
2022-10-29T06:38:36.796Z,101008.44
2022-10-29T06:41:06.445Z,101008.59
2022-10-29T06:43:36.032Z,101006.91
2022-10-29T06:46:05.842Z,101012.97
2022-10-29T06:48:35.421Z,101001.50
2022-10-29T06:51:07.963Z,101006.63
2022-10-29T06:53:37.823Z,101011.19
2022-10-29T06:56:07.743Z,101011.63
2022-10-29T06:58:37.338Z,100998.88
2022-10-29T07:01:07.117Z,101003.16
2022-10-29T07:03:36.752Z,100995.28
2022-10-29T07:06:09.888Z,100994.59
2022-10-29T07:08:39.682Z,101004.19
2022-10-29T07:11:09.291Z,101004.41
2022-10-29T07:13:39.052Z,101007.59
2022-10-29T07:16:09.668Z,101006.25
2022-10-29T07:18:39.317Z,101009.69
2022-10-29T07:21:12.743Z,101000.78
2022-10-29T07:23:42.385Z,101009.50
2022-10-29T07:26:11.985Z,101013.03
2022-10-29T07:28:41.538Z,101009.25
2022-10-29T07:31:11.114Z,101005.41
2022-10-29T07:33:40.687Z,100997.53
2022-10-29T07:36:13.072Z,101001.97
2022-10-29T07:38:42.615Z,101003.50
2022-10-29T07:41:12.226Z,101010.19
2022-10-29T07:43:41.798Z,101005.59
2022-10-29T07:46:11.405Z,101009.00
2022-10-29T07:48:40.962Z,101020.31
2022-10-29T07:51:13.334Z,101012.09
2022-10-29T07:53:42.881Z,101009.00
2022-10-29T07:56:12.462Z,101009.75
2022-10-29T07:58:42.124Z,101013.69
2022-10-29T08:01:11.801Z,101012.75
2022-10-29T08:03:41.536Z,101008.13
2022-10-29T08:06:13.896Z,101023.63
2022-10-29T08:08:43.597Z,101018.22
2022-10-29T08:11:13.316Z,101017.88
2022-10-29T08:13:42.927Z,101009.50
2022-10-29T08:16:12.516Z,100995.03
2022-10-29T08:18:42.084Z,101008.94
2022-10-29T08:21:14.327Z,101007.19
2022-10-29T08:23:43.910Z,101004.22
2022-10-29T08:26:13.535Z,101000.84
2022-10-29T08:28:43.127Z,101005.06
2022-10-29T08:31:12.921Z,101003.25
2022-10-29T08:33:42.464Z,101005.63
2022-10-29T08:36:14.899Z,101002.16
2022-10-29T08:38:44.571Z,100989.66
2022-10-29T08:41:32.941Z,100997.44
2022-10-29T08:44:14.419Z,100995.63
2022-10-29T08:46:47.265Z,100989.69
2022-10-29T08:49:20.702Z,100979.09
2022-10-29T08:51:59.482Z,100972.94
2022-10-29T08:54:32.574Z,100978.31
2022-10-29T08:57:05.474Z,100965.03
2022-10-29T08:59:38.871Z,100975.31
2022-10-29T09:02:13.829Z,100978.50
2022-10-29T09:04:43.487Z,100969.56
2022-10-29T09:07:28.762Z,100980.03
2022-10-29T09:10:02.829Z,100977.28
2022-10-29T09:12:51.364Z,100980.88
2022-10-29T09:15:41.362Z,100980.44
2022-10-29T09:18:31.009Z,100975.09
2022-10-29T09:21:06.140Z,100989.84
2022-10-29T09:23:53.469Z,100982.97
2022-10-29T09:26:28.467Z,100981.44
2022-10-29T09:29:09.127Z,100976.63
2022-10-29T09:31:43.276Z,100968.91
2022-10-29T09:34:18.149Z,100978.63
2022-10-29T09:36:48.494Z,100973.31
2022-10-29T09:39:33.791Z,100976.00
2022-10-29T09:42:04.597Z,100969.34
2022-10-29T09:44:40.728Z,100974.38
2022-10-29T09:47:16.103Z,100970.16
2022-10-29T09:49:55.431Z,100970.44
2022-10-29T09:52:26.552Z,100959.91
2022-10-29T09:54:58.810Z,100963.19
2022-10-29T09:57:31.298Z,100952.03
2022-10-29T10:00:02.781Z,100953.00
2022-10-29T10:02:46.245Z,100956.41
2022-10-29T10:05:18.713Z,100953.63
2022-10-29T10:08:07.608Z,100953.66
2022-10-29T10:10:42.303Z,100949.41
2022-10-29T10:13:17.824Z,100950.53
2022-10-29T10:15:53.906Z,100952.69
2022-10-29T10:18:25.411Z,100962.81
2022-10-29T10:21:07.525Z,100958.69
2022-10-29T10:23:45.878Z,100957.03
2022-10-29T10:26:39.325Z,100965.53
2022-10-29T10:29:13.728Z,100947.28
2022-10-29T10:31:43.706Z,100941.53
2022-10-29T10:34:19.033Z,100930.75
2022-10-29T10:36:51.716Z,100926.09
2022-10-29T10:39:25.671Z,100939.25
2022-10-29T10:41:58.828Z,100934.63
2022-10-29T10:44:29.773Z,100940.53
2022-10-29T10:47:02.348Z,100935.16
2022-10-29T10:49:37.001Z,100926.00
2022-10-29T10:52:08.697Z,100917.72
2022-10-29T10:54:41.975Z,100918.56
2022-10-29T10:57:25.205Z,100904.53
2022-10-29T11:00:02.915Z,100916.97
2022-10-29T11:02:42.505Z,100915.47
2022-10-29T11:05:19.752Z,100915.34
2022-10-29T11:10:23.568Z,100923.84
2022-10-29T11:12:58.528Z,100922.75
2022-10-29T11:15:36.080Z,100922.16
2022-10-29T11:18:09.600Z,100919.34
2022-10-29T11:20:40.088Z,100921.38
2022-10-29T11:23:24.680Z,100924.66
2022-10-29T11:25:58.040Z,100911.13
2022-10-29T11:28:34.897Z,100913.88
2022-10-29T11:31:14.650Z,100911.94
2022-10-29T11:33:49.052Z,100912.38
2022-10-29T11:36:22.729Z,100899.28
2022-10-29T11:38:55.113Z,100908.91
2022-10-29T11:41:29.257Z,100914.13
2022-10-29T11:44:01.627Z,100898.75
2022-10-29T11:46:41.969Z,100894.44
2022-10-29T11:49:21.930Z,100895.53
2022-10-29T11:51:58.540Z,100896.25
2022-10-29T11:54:40.547Z,100895.81
2022-10-29T11:57:16.709Z,100899.94
2022-10-29T12:00:05.314Z,100903.47
2022-10-29T12:03:04.932Z,100902.81
2022-10-29T12:05:39.780Z,100898.84
2022-10-29T12:08:24.331Z,100894.09
2022-10-29T12:10:57.570Z,100886.75
2022-10-29T12:13:42.349Z,100887.59
2022-10-29T12:16:26.606Z,100884.19
2022-10-29T12:19:01.157Z,100880.38
2022-10-29T12:21:36.531Z,100873.03
2022-10-29T12:24:17.573Z,100875.22
2022-10-29T12:26:49.200Z,100870.41
2022-10-29T12:29:23.944Z,100873.41
2022-10-29T12:32:00.874Z,100866.66
2022-10-29T12:34:34.745Z,100864.44
2022-10-29T12:37:10.817Z,100858.91
2022-10-29T12:39:44.011Z,100858.19
2022-10-29T12:42:18.610Z,100859.47
2022-10-29T12:44:55.208Z,100858.38
2022-10-29T12:47:33.814Z,100862.47
2022-10-29T12:50:08.948Z,100858.78
2022-10-29T12:52:44.366Z,100854.28
2022-10-29T12:55:16.135Z,100856.41
2022-10-29T12:57:45.715Z,100853.03
2022-10-29T13:00:45.131Z,100852.78
2022-10-29T13:03:52.306Z,100845.41
2022-10-29T13:06:50.082Z,100846.00
2022-10-29T13:09:22.421Z,100837.50
2022-10-29T13:11:53.831Z,100843.97
2022-10-29T13:14:27.079Z,100841.88
2022-10-29T13:16:57.398Z,100842.03
2022-10-29T13:19:46.795Z,100842.28
2022-10-29T13:22:56.361Z,100841.28
2022-10-29T13:25:53.354Z,100833.38
2022-10-29T13:28:53.866Z,100833.50
2022-10-29T13:31:53.182Z,100827.84
2022-10-29T13:34:58.857Z,100817.38
2022-10-29T13:37:56.647Z,100825.75
2022-10-29T13:40:46.147Z,100818.53
2022-10-29T13:43:20.599Z,100809.47
2022-10-29T13:45:53.596Z,100802.09
2022-10-29T13:48:28.508Z,100807.63
2022-10-29T13:51:01.650Z,100801.53
2022-10-29T13:53:38.423Z,100798.97
2022-10-29T13:56:12.064Z,100800.56
2022-10-29T13:58:43.913Z,100800.56
2022-10-29T14:01:18.185Z,100793.47
2022-10-29T14:03:55.834Z,100788.94
2022-10-29T14:06:30.434Z,100787.09
2022-10-29T14:09:07.082Z,100785.25
2022-10-29T14:11:42.500Z,100779.88
2022-10-29T14:14:24.412Z,100779.31
2022-10-29T14:17:12.097Z,100776.91
2022-10-29T14:19:47.249Z,100773.22
2022-10-29T14:22:25.647Z,100777.19
2022-10-29T14:24:55.195Z,100771.81
2022-10-29T14:27:24.737Z,100783.97
2022-10-29T14:29:55.633Z,100776.34
2022-10-29T14:32:25.439Z,100772.22
2022-10-29T14:34:55.181Z,100768.00
2022-10-29T14:37:31.313Z,100767.28
2022-10-29T14:40:02.818Z,100764.88
2022-10-29T14:42:35.232Z,100776.06
2022-10-29T14:45:08.316Z,100763.31
2022-10-29T14:47:39.279Z,100762.88
2022-10-29T14:50:17.410Z,100760.88
2022-10-29T14:52:53.795Z,100764.53
2022-10-29T14:55:26.645Z,100760.69
2022-10-29T14:58:02.845Z,100757.97
2022-10-29T15:00:33.613Z,100760.19
2022-10-29T15:03:03.801Z,100756.09
2022-10-29T15:05:36.097Z,100758.47
2022-10-29T15:08:19.097Z,100758.00
2022-10-29T15:10:50.814Z,100757.31
2022-10-29T15:13:31.804Z,100755.84
2022-10-29T15:16:03.271Z,100753.84
2022-10-29T15:18:33.701Z,100749.59
2022-10-29T15:21:03.361Z,100753.84
2022-10-29T15:23:38.196Z,100748.19
2022-10-29T15:26:09.886Z,100746.41
2022-10-29T15:28:41.059Z,100745.56
2022-10-29T15:31:24.718Z,100745.44
2022-10-29T15:33:55.139Z,100743.31
2022-10-29T15:36:25.082Z,100741.16
2022-10-29T15:39:22.829Z,100744.09
2022-10-29T15:41:53.246Z,100753.63
2022-10-29T15:44:31.878Z,100752.47
2022-10-29T15:47:03.125Z,100753.56
2022-10-29T15:49:33.114Z,100751.00
2022-10-29T15:52:03.165Z,100750.16
2022-10-29T15:54:36.519Z,100750.94
2022-10-29T15:57:06.990Z,100757.16
2022-10-29T15:59:36.550Z,100749.38
2022-10-29T16:02:13.132Z,100745.84
2022-10-29T16:04:42.838Z,100750.75
2022-10-29T16:07:15.219Z,100752.72
2022-10-29T16:09:50.452Z,100744.78
2022-10-29T16:12:20.276Z,100747.47
2022-10-29T16:14:49.857Z,100741.16
2022-10-29T16:17:21.642Z,100735.88
2022-10-29T16:19:51.259Z,100737.72
2022-10-29T16:22:26.035Z,100740.19
2022-10-29T16:24:58.607Z,100736.34
2022-10-29T16:27:28.201Z,100737.44
2022-10-29T16:29:57.721Z,100743.66
2022-10-29T16:32:27.408Z,100740.97
2022-10-29T16:34:56.907Z,100746.75
2022-10-29T16:37:26.438Z,100737.13
2022-10-29T16:39:58.600Z,100739.34
2022-10-29T16:42:33.003Z,100726.06
2022-10-29T16:45:02.744Z,100725.59
2022-10-29T16:47:32.385Z,100730.63
2022-10-29T16:50:01.871Z,100731.97
2022-10-29T16:52:32.836Z,100726.72
2022-10-29T16:55:05.084Z,100724.16
2022-10-29T16:57:34.610Z,100726.72
2022-10-29T17:00:04.184Z,100714.66
2022-10-29T17:02:33.796Z,100718.19
2022-10-29T17:05:03.327Z,100722.13
2022-10-29T17:07:32.948Z,100714.09
2022-10-29T17:10:05.054Z,100709.84
2022-10-29T17:12:34.676Z,100700.09
2022-10-29T17:15:04.305Z,100710.69
2022-10-29T17:17:34.245Z,100710.56
2022-10-29T17:20:03.975Z,100715.06
2022-10-29T17:22:33.556Z,100703.00
2022-10-29T17:25:05.702Z,100713.09
2022-10-29T17:27:35.265Z,100712.75
2022-10-29T17:30:04.825Z,100709.94
2022-10-29T17:32:34.447Z,100708.72
2022-10-29T17:35:04.105Z,100708.59
2022-10-29T17:37:33.850Z,100711.13
2022-10-29T17:40:08.155Z,100714.81
2022-10-29T17:42:38.065Z,100711.88
2022-10-29T17:45:08.882Z,100714.66
2022-10-29T17:50:28.679Z,100720.28
2022-10-29T17:52:59.757Z,100723.34
2022-10-29T17:55:32.018Z,100718.63
2022-10-29T17:58:01.592Z,100723.63
2022-10-29T18:00:31.379Z,100724.03
2022-10-29T18:03:00.957Z,100728.66
2022-10-29T18:05:30.518Z,100726.09
2022-10-29T18:08:00.380Z,100727.34
2022-10-29T18:10:34.426Z,100727.56
2022-10-29T18:13:04.106Z,100722.72
2022-10-29T18:15:33.681Z,100723.19
2022-10-29T18:18:03.384Z,100727.22
2022-10-29T18:20:32.970Z,100730.38
2022-10-29T18:23:03.104Z,100734.63
2022-10-29T18:25:35.383Z,100728.53
2022-10-29T18:28:04.947Z,100726.59
2022-10-29T18:30:34.490Z,100729.97
2022-10-29T18:33:04.054Z,100728.03
2022-10-29T18:35:33.613Z,100721.94
2022-10-29T18:38:03.116Z,100716.09
2022-10-29T18:40:35.183Z,100711.72
2022-10-29T18:43:04.933Z,100702.84
2022-10-29T18:45:34.458Z,100701.03
2022-10-29T18:48:04.050Z,100694.81
2022-10-29T18:50:34.581Z,100685.81
2022-10-29T18:53:04.111Z,100688.13
2022-10-29T18:55:36.572Z,100692.50
2022-10-29T18:58:06.163Z,100694.19
2022-10-29T19:00:35.706Z,100700.16
2022-10-29T19:03:05.223Z,100692.25
2022-10-29T19:05:37.579Z,100692.97
2022-10-29T19:08:08.082Z,100693.97
2022-10-29T19:10:42.959Z,100692.84
2022-10-29T19:13:12.564Z,100692.97
2022-10-29T19:15:42.120Z,100699.06
2022-10-29T19:18:11.741Z,100694.56
2022-10-29T19:20:41.383Z,100692.25
2022-10-29T19:23:10.863Z,100691.38
2022-10-29T19:25:44.509Z,100692.00
2022-10-29T19:28:14.066Z,100689.47
2022-10-29T19:30:43.629Z,100683.97
2022-10-29T19:33:13.211Z,100691.75
2022-10-29T19:35:42.745Z,100692.47
2022-10-29T19:38:12.290Z,100679.81
2022-10-29T19:40:44.443Z,100682.69
2022-10-29T19:43:13.959Z,100690.25
2022-10-29T19:45:43.489Z,100707.53
2022-10-29T19:48:12.983Z,100708.84
2022-10-29T19:50:42.551Z,100709.22
2022-10-29T19:53:12.441Z,100700.69
2022-10-29T19:55:44.815Z,100693.22
2022-10-29T19:58:14.356Z,100699.22
2022-10-29T20:00:44.042Z,100696.25
2022-10-29T20:03:13.922Z,100698.72
2022-10-29T20:05:44.071Z,100700.41
2022-10-29T20:08:16.073Z,100710.06
2022-10-29T20:10:56.711Z,100712.53
2022-10-29T20:13:26.301Z,100712.38
2022-10-29T20:15:56.113Z,100711.28
2022-10-29T20:18:26.029Z,100704.78
2022-10-29T20:20:57.147Z,100710.06
2022-10-29T20:23:26.959Z,100703.22
2022-10-29T20:25:59.114Z,100706.19
2022-10-29T20:28:28.662Z,100699.84
2022-10-29T20:31:12.872Z,100706.31
2022-10-29T20:33:42.469Z,100709.00
2022-10-29T20:36:12.457Z,100699.97
2022-10-29T20:38:42.102Z,100693.38
2022-10-29T20:41:14.265Z,100693.22
2022-10-29T20:43:43.831Z,100705.69
2022-10-29T20:46:13.586Z,100704.56
2022-10-29T20:48:43.115Z,100710.53
2022-10-29T20:51:13.512Z,100711.63
2022-10-29T20:53:43.042Z,100710.16
2022-10-29T20:56:16.527Z,100705.91
2022-10-29T20:58:46.503Z,100709.31
2022-10-29T21:01:17.620Z,100701.41
2022-10-29T21:03:47.571Z,100714.09
2022-10-29T21:06:17.686Z,100702.78
2022-10-29T21:08:47.410Z,100706.41
2022-10-29T21:11:20.961Z,100708.16
2022-10-29T21:13:50.477Z,100715.91
2022-10-29T21:16:21.887Z,100713.50
2022-10-29T21:18:52.990Z,100718.09
2022-10-29T21:21:22.890Z,100725.06
2022-10-29T21:23:52.452Z,100726.00
2022-10-29T21:26:27.386Z,100736.00
2022-10-29T21:28:57.341Z,100736.84
2022-10-29T21:31:27.167Z,100737.97
2022-10-29T21:33:57.728Z,100740.06
2022-10-29T21:36:27.476Z,100745.88
2022-10-29T21:38:57.268Z,100741.63
2022-10-29T21:41:29.391Z,100739.66
2022-10-29T21:43:58.991Z,100742.84
2022-10-29T21:46:28.509Z,100743.56
2022-10-29T21:48:58.360Z,100758.66
2022-10-29T21:51:28.035Z,100751.84
2022-10-29T21:53:57.678Z,100747.09
2022-10-29T21:56:29.849Z,100740.03
2022-10-29T21:58:59.366Z,100747.78
2022-10-29T22:01:28.951Z,100747.78
2022-10-29T22:03:58.585Z,100745.97
2022-10-29T22:06:28.413Z,100746.94
2022-10-29T22:08:59.446Z,100745.97
2022-10-29T22:11:31.767Z,100741.59
2022-10-29T22:14:01.645Z,100744.75
2022-10-29T22:16:31.206Z,100741.84
2022-10-29T22:19:00.965Z,100744.44
2022-10-29T22:21:32.103Z,100747.97
2022-10-29T22:24:02.572Z,100750.66
2022-10-29T22:26:34.918Z,100748.69
2022-10-29T22:29:04.432Z,100745.53
2022-10-29T22:31:33.990Z,100741.75
2022-10-29T22:34:03.986Z,100743.69
2022-10-29T22:36:34.202Z,100742.50
2022-10-29T22:39:04.206Z,100746.91
2022-10-29T22:41:36.375Z,100747.25
2022-10-29T22:44:06.157Z,100755.28
2022-10-29T22:46:35.674Z,100750.19
2022-10-29T22:49:05.254Z,100744.00
2022-10-29T22:51:36.131Z,100744.22
2022-10-29T22:54:06.107Z,100759.94
2022-10-29T22:56:40.725Z,100745.81
2022-10-29T22:59:10.524Z,100751.03
2022-10-29T23:01:44.302Z,100744.59
2022-10-29T23:04:15.654Z,100741.09
2022-10-29T23:06:47.685Z,100744.84
2022-10-29T23:09:17.226Z,100750.81
2022-10-29T23:11:49.401Z,100741.19
2022-10-29T23:14:18.929Z,100744.97
2022-10-29T23:16:48.450Z,100752.03
2022-10-29T23:19:18.023Z,100746.78
2022-10-29T23:21:47.627Z,100743.13
2022-10-29T23:24:17.139Z,100747.50
2022-10-29T23:26:49.264Z,100742.16
2022-10-29T23:29:18.776Z,100748.88
2022-10-29T23:31:48.285Z,100748.66
2022-10-29T23:34:18.040Z,100745.09
2022-10-29T23:36:47.669Z,100752.03
2022-10-29T23:39:17.300Z,100749.59
2022-10-29T23:41:49.459Z,100752.41
2022-10-29T23:44:19.015Z,100748.75
2022-10-29T23:46:48.626Z,100746.19
2022-10-29T23:49:18.172Z,100744.25
2022-10-29T23:51:47.733Z,100744.50
2022-10-29T23:54:17.256Z,100744.50
2022-10-29T23:56:49.427Z,100746.06
2022-10-29T23:59:19.079Z,100745.47
